createdAt,value
2023-02-22T00:06:05.052Z,101765.13
2023-02-22T00:16:26.735Z,101757.41
2023-02-22T00:26:49.454Z,101756.53
2023-02-22T00:37:11.004Z,101741.78
2023-02-22T00:47:32.518Z,101749.50
2023-02-22T00:57:55.366Z,101741.66
2023-02-22T01:08:17.336Z,101733.06
2023-02-22T01:18:38.744Z,101721.19
2023-02-22T01:29:00.104Z,101715.97
2023-02-22T01:39:21.463Z,101704.81
2023-02-22T01:49:46.457Z,101704.81
2023-02-22T02:00:10.193Z,101693.72
2023-02-22T02:10:32.015Z,101690.16
2023-02-22T02:20:53.370Z,101678.19
2023-02-22T02:31:33.588Z,101668.84
2023-02-22T02:41:56.546Z,101674.91
2023-02-22T02:52:20.719Z,101652.56
2023-02-22T03:02:42.108Z,101638.84
2023-02-22T03:13:10.189Z,101625.84
2023-02-22T03:23:35.244Z,101632.75
2023-02-22T03:34:00.806Z,101623.34
2023-02-22T03:44:25.753Z,101631.91
2023-02-22T03:54:47.172Z,101635.38
2023-02-22T04:05:08.829Z,101625.03
2023-02-22T04:15:30.181Z,101622.47
2023-02-22T04:25:51.551Z,101613.84
2023-02-22T04:36:15.962Z,101603.50
2023-02-22T04:46:37.449Z,101594.06
2023-02-22T04:56:58.803Z,101581.13
2023-02-22T05:07:20.333Z,101574.22
2023-02-22T05:17:41.727Z,101574.31
2023-02-22T05:28:04.918Z,101562.25
2023-02-22T05:38:26.259Z,101546.66
2023-02-22T05:48:47.662Z,101532.03
2023-02-22T05:59:09.046Z,101525.25
2023-02-22T06:09:30.400Z,101533.84
2023-02-22T06:19:51.797Z,101531.28
2023-02-22T06:30:14.831Z,101535.63
2023-02-22T06:40:37.022Z,101524.41
2023-02-22T06:50:58.439Z,101521.88
2023-02-22T07:01:20.027Z,101522.00
2023-02-22T07:11:41.573Z,101527.19
2023-02-22T07:22:02.939Z,101524.59
2023-02-22T07:32:24.384Z,101523.75
2023-02-22T07:42:51.980Z,101520.25
2023-02-22T07:53:15.363Z,101516.84
2023-02-22T08:03:37.919Z,101509.06
2023-02-22T08:13:59.405Z,101505.53
2023-02-22T08:24:20.740Z,101496.75
2023-02-22T08:34:42.518Z,101490.56
2023-02-22T08:45:04.004Z,101491.31
2023-02-22T08:55:26.436Z,101489.34
2023-02-22T09:05:47.981Z,101482.25
2023-02-22T09:16:11.521Z,101479.56
2023-02-22T09:26:33.257Z,101467.44
2023-02-22T09:36:55.191Z,101462.22
2023-02-22T09:47:21.894Z,101451.84
2023-02-22T09:57:43.983Z,101455.00
2023-02-22T10:08:10.283Z,101454.78
2023-02-22T10:18:50.067Z,101438.91
2023-02-22T10:29:19.064Z,101434.41
2023-02-22T10:39:42.028Z,101427.13
2023-02-22T10:50:04.261Z,101415.34
2023-02-22T11:00:37.161Z,101411.38
2023-02-22T11:11:04.755Z,101393.66
2023-02-22T11:21:26.167Z,101384.34
2023-02-22T11:31:49.306Z,101375.25
2023-02-22T11:42:21.350Z,101358.53
2023-02-22T11:52:44.840Z,101342.50
2023-02-22T12:03:09.280Z,101335.19
2023-02-22T12:13:30.928Z,101327.19
2023-02-22T12:24:04.592Z,101306.22
2023-02-22T12:34:41.935Z,101299.84
2023-02-22T12:45:08.317Z,101288.47
2023-02-22T12:55:56.272Z,101285.44
2023-02-22T13:06:24.634Z,101289.75
2023-02-22T13:16:52.697Z,101289.59
2023-02-22T13:27:19.353Z,101284.19
2023-02-22T13:37:53.024Z,101271.91
2023-02-22T13:48:17.620Z,101251.75
2023-02-22T13:58:53.622Z,101256.31
2023-02-22T14:09:33.929Z,101245.69
2023-02-22T14:20:04.297Z,101250.69
2023-02-22T14:30:27.589Z,101238.38
2023-02-22T14:40:51.229Z,101235.09
2023-02-22T14:51:31.580Z,101226.72
2023-02-22T15:02:11.878Z,101232.03
2023-02-22T15:12:33.735Z,101232.22
2023-02-22T15:22:59.773Z,101226.94
2023-02-22T15:33:24.401Z,101237.16
2023-02-22T15:43:57.312Z,101237.34
2023-02-22T15:54:27.106Z,101232.03
2023-02-22T16:04:59.332Z,101225.44
2023-02-22T16:15:21.240Z,101235.34
2023-02-22T16:25:42.592Z,101240.09
2023-02-22T16:36:05.282Z,101247.59
2023-02-22T16:46:26.732Z,101246.00
2023-02-22T16:56:48.164Z,101248.09
2023-02-22T17:07:10.017Z,101263.66
2023-02-22T17:17:32.685Z,101264.75
2023-02-22T17:27:54.184Z,101278.88
2023-02-22T17:38:18.728Z,101283.44
2023-02-22T17:48:40.177Z,101276.63
2023-02-22T17:59:01.731Z,101283.72
2023-02-22T18:09:23.405Z,101274.28
2023-02-22T18:19:44.866Z,101275.38
2023-02-22T18:30:06.465Z,101273.88
2023-02-22T18:40:27.847Z,101276.59
2023-02-22T18:50:49.237Z,101268.06
2023-02-22T19:01:14.702Z,101278.66
2023-02-22T19:11:36.549Z,101246.56
2023-02-22T19:21:57.918Z,101257.41
2023-02-22T19:32:19.494Z,101265.28
2023-02-22T19:42:40.918Z,101261.25
2023-02-22T19:53:05.888Z,101261.47
2023-02-22T20:03:28.356Z,101263.53
2023-02-22T20:13:49.839Z,101264.75
2023-02-22T20:24:14.823Z,101281.50
2023-02-22T20:34:36.287Z,101287.75
2023-02-22T20:45:01.805Z,101295.75
2023-02-22T20:55:23.167Z,101290.88
2023-02-22T21:05:45.597Z,101285.66
2023-02-22T21:16:07.912Z,101280.44
2023-02-22T21:26:30.636Z,101283.94
2023-02-22T21:36:53.255Z,101277.81
2023-02-22T21:47:14.656Z,101276.97
2023-02-22T21:57:36.095Z,101274.44
2023-02-22T22:07:57.780Z,101275.31
2023-02-22T22:18:19.147Z,101284.84
2023-02-22T22:28:42.007Z,101283.25
2023-02-22T22:39:12.755Z,101283.38
2023-02-22T22:49:40.280Z,101284.19
2023-02-22T23:00:21.726Z,101286.19
2023-02-22T23:10:43.217Z,101298.38
2023-02-22T23:21:05.450Z,101304.63
2023-02-22T23:31:29.957Z,101298.47
2023-02-22T23:41:51.783Z,101312.47
2023-02-22T23:52:23.819Z,101327.34
